Time,TemperatureF,DewpointF,PressureIn,WindDirection,WindDirectionDegrees,WindSpeedMPH,WindSpeedGustMPH,Humidity,HourlyPrecipIn,Conditions,Clouds,dailyrainin,SolarRadiationWatts/m^2,SoftwareType,DateUTC
2013-01-02 00:01:00,27.3,26.3,30.08,SE,138,1.9,4.6,96,0.00,BKN,,0.00,0.0,WeatherDisplay:10.37,2013-01-01 23:01:00,
2013-01-02 00:06:00,27.3,26.3,30.08,East,93,1.9,4.6,96,0.00,BKN,,0.00,0.0,WeatherDisplay:10.37,2013-01-01 23:06:00,
2013-01-02 00:11:00,27.3,26.3,30.08,SE,140,1.8,3.5,96,0.00,BKN,,0.00,0.0,WeatherDisplay:10.37,2013-01-01 23:11:00,
2013-01-02 00:16:00,27.3,26.3,30.08,SE,143,2.2,3.5,96,0.00,BKN,,0.00,0.0,WeatherDisplay:10.37,2013-01-01 23:16:00,
2013-01-02 00:21:00,27.3,26.3,30.08,SSE,162,1.4,2.3,96,0.00,BKN,,0.00,0.0,WeatherDisplay:10.37,2013-01-01 23:21:00,
2013-01-02 00:26:00,27.3,26.3,30.08,SSE,149,1.9,3.5,96,0.00,BKN,,0.00,0.0,WeatherDisplay:10.37,2013-01-01 23:26:00,
2013-01-02 00:31:00,27.3,26.3,30.08,SSE,149,0.2,2.3,96,0.00,BKN,,0.00,0.0,WeatherDisplay:10.37,2013-01-01 23:31:00,
2013-01-02 00:36:00,27.3,26.3,30.08,SSE,149,2.0,3.5,96,0.00,BKN,,0.00,0.0,WeatherDisplay:10.37,2013-01-01 23:36:00,
2013-01-02 00:41:00,27.2,26.2,30.08,South,173,0.8,3.5,96,0.00,BKN,,0.00,0.0,WeatherDisplay:10.37,2013-01-01 23:41:00,
2013-01-02 00:46:00,27.3,26.3,30.08,South,173,0.1,1.1,96,0.00,BKN,,0.00,0.0,WeatherDisplay:10.37,2013-01-01 23:46:00,
2013-01-02 00:51:00,27.2,26.2,30.08,South,173,0.0,0.0,96,0.00,BKN,,0.00,0.0,WeatherDisplay:10.37,2013-01-01 23:51:00,
2013-01-02 00:56:00,27.3,26.3,30.08,South,173,0.0,1.1,96,0.00,BKN,,0.00,0.0,WeatherDisplay:10.37,2013-01-01 23:56:00,
2013-01-02 01:01:00,27.3,26.3,30.08,South,173,0.0,0.0,96,0.00,BKN,,0.00,0.0,WeatherDisplay:10.37,2013-01-02 00:01:00,
2013-01-02 01:06:00,27.3,26.3,30.08,South,173,0.0,1.1,96,0.00,BKN,,0.00,0.0,WeatherDisplay:10.37,2013-01-02 00:06:00,
2013-01-02 01:11:00,27.3,26.3,30.08,South,173,0.0,0.0,96,0.00,BKN,,0.00,0.0,WeatherDisplay:10.37,2013-01-02 00:11:00,
2013-01-02 01:17:00,27.4,26.7,30.08,South,173,0.0,1.1,97,0.00,BKN,,0.00,0.0,WeatherDisplay:10.37,2013-01-02 00:17:00,
2013-01-02 01:22:00,27.4,26.4,30.08,South,173,0.0,0.0,96,0.00,BKN,,0.00,0.0,WeatherDisplay:10.37,2013-01-02 00:22:00,
2013-01-02 01:27:00,27.4,26.4,30.08,South,173,0.1,1.1,96,0.00,BKN,,0.00,0.0,WeatherDisplay:10.37,2013-01-02 00:27:00,
2013-01-02 01:32:00,27.5,26.5,30.08,South,173,0.0,0.0,96,0.00,BKN,,0.00,0.0,WeatherDisplay:10.37,2013-01-02 00:32:00,
2013-01-02 01:37:00,27.5,26.5,30.08,South,173,0.0,1.1,96,0.00,BKN,,0.00,0.0,WeatherDisplay:10.37,2013-01-02 00:37:00,
2013-01-02 01:42:00,27.5,26.5,30.08,South,173,0.0,0.0,96,0.00,BKN,,0.00,0.0,WeatherDisplay:10.37,2013-01-02 00:42:00,
2013-01-02 01:47:00,27.6,26.6,30.08,South,173,0.0,0.0,96,0.00,BKN,,0.00,0.0,WeatherDisplay:10.37,2013-01-02 00:47:00,
2013-01-02 01:52:00,27.6,26.6,30.09,South,173,0.0,0.0,96,0.00,BKN,,0.00,0.0,WeatherDisplay:10.37,2013-01-02 00:52:00,
2013-01-02 01:57:00,27.6,26.6,30.08,South,173,0.0,0.0,96,0.00,BKN,,0.00,0.0,WeatherDisplay:10.37,2013-01-02 00:57:00,
2013-01-02 02:02:00,27.7,26.7,30.08,South,173,0.0,0.0,96,0.00,BKN,,0.00,0.0,WeatherDisplay:10.37,2013-01-02 01:02:00,
2013-01-02 02:07:00,27.7,26.7,30.09,South,173,0.0,0.0,96,0.00,BKN,,0.00,0.0,WeatherDisplay:10.37,2013-01-02 01:07:00,
2013-01-02 02:12:00,27.7,27.0,30.09,South,173,0.0,1.1,97,0.00,BKN,,0.00,0.0,WeatherDisplay:10.37,2013-01-02 01:12:00,
2013-01-02 02:17:00,27.7,27.0,30.09,ESE,105,0.1,2.0,97,0.00,BKN,,0.00,0.0,WeatherDisplay:10.37,2013-01-02 01:17:00,
2013-01-02 02:22:00,27.7,27.0,30.09,ESE,106,1.0,2.3,97,0.00,BKN,,0.00,0.0,WeatherDisplay:10.37,2013-01-02 01:22:00,
2013-01-02 02:27:00,27.7,27.0,30.08,ESE,105,0.7,2.3,97,0.00,BKN,,0.00,0.0,WeatherDisplay:10.37,2013-01-02 01:27:00,
2013-01-02 02:32:00,27.7,27.0,30.09,ESE,105,0.1,1.1,97,0.00,BKN,,0.00,0.0,WeatherDisplay:10.37,2013-01-02 01:32:00,
2013-01-02 02:37:00,27.7,27.0,30.09,ESE,105,0.2,2.3,97,0.00,BKN,,0.00,0.0,WeatherDisplay:10.37,2013-01-02 01:37:00,
2013-01-02 02:42:00,27.8,27.1,30.09,ESE,105,0.0,0.0,97,0.00,BKN,,0.00,0.0,WeatherDisplay:10.37,2013-01-02 01:42:00,
2013-01-02 02:47:00,27.8,27.1,30.09,ESE,105,0.0,0.0,97,0.00,BKN,,0.00,0.0,WeatherDisplay:10.37,2013-01-02 01:47:00,
2013-01-02 02:52:00,27.8,27.1,30.08,ESE,105,0.0,1.1,97,0.00,BKN,,0.00,0.0,WeatherDisplay:10.37,2013-01-02 01:52:00,
2013-01-02 02:57:00,27.8,27.1,30.09,ESE,105,0.0,0.0,97,0.00,BKN,,0.00,0.0,WeatherDisplay:10.37,2013-01-02 01:57:00,
2013-01-02 03:02:00,27.9,27.2,30.09,ESE,105,0.0,0.0,97,0.00,BKN,,0.00,0.0,WeatherDisplay:10.37,2013-01-02 02:02:00,
2013-01-02 03:07:00,27.9,27.2,30.09,ESE,105,0.0,0.0,97,0.00,BKN,,0.00,0.0,WeatherDisplay:10.37,2013-01-02 02:07:00,
2013-01-02 03:12:00,27.9,27.2,30.09,ESE,105,0.0,0.0,97,0.00,BKN,,0.00,0.0,WeatherDisplay:10.37,2013-01-02 02:12:00,
2013-01-02 03:17:00,27.9,26.9,30.09,ESE,105,0.0,0.0,96,0.00,BKN,,0.00,0.0,WeatherDisplay:10.37,2013-01-02 02:17:00,
2013-01-02 03:22:00,27.9,27.2,30.09,ESE,105,0.0,0.0,97,0.00,BKN,,0.00,0.0,WeatherDisplay:10.37,2013-01-02 02:22:00,
2013-01-02 03:27:00,27.9,27.2,30.09,ESE,105,0.0,0.0,97,0.00,BKN,,0.00,0.0,WeatherDisplay:10.37,2013-01-02 02:27:00,
2013-01-02 03:32:00,27.9,26.9,30.09,ESE,105,0.2,1.1,96,0.00,BKN,,0.00,0.0,WeatherDisplay:10.37,2013-01-02 02:32:00,
2013-01-02 03:37:00,27.9,26.9,30.09,ESE,105,0.0,0.0,96,0.00,BKN,,0.00,0.0,WeatherDisplay:10.37,2013-01-02 02:37:00,
2013-01-02 03:42:00,27.9,27.2,30.09,ESE,105,0.0,0.0,97,0.00,BKN,,0.00,0.0,WeatherDisplay:10.37,2013-01-02 02:42:00,
2013-01-02 03:47:00,27.9,26.9,30.09,ESE,105,1.4,2.3,96,0.00,BKN,,0.00,0.0,WeatherDisplay:10.37,2013-01-02 02:47:00,
2013-01-02 03:52:00,27.9,26.9,30.09,ESE,106,1.0,2.3,96,0.00,BKN,,0.00,0.0,WeatherDisplay:10.37,2013-01-02 02:52:00,
2013-01-02 03:57:00,27.8,27.1,30.09,ESE,105,0.9,2.3,97,0.00,BKN,,0.00,0.0,WeatherDisplay:10.37,2013-01-02 02:57:00,
2013-01-02 04:02:00,27.8,27.1,30.09,ENE,76,0.2,3.5,97,0.00,BKN,,0.00,0.0,WeatherDisplay:10.37,2013-01-02 03:02:00,
2013-01-02 04:07:00,27.8,26.8,30.09,ENE,76,0.1,1.1,96,0.00,BKN,,0.00,0.0,WeatherDisplay:10.37,2013-01-02 03:07:00,
2013-01-02 04:12:00,27.8,26.8,30.09,ENE,72,2.0,2.3,96,0.00,BKN,,0.00,0.0,WeatherDisplay:10.37,2013-01-02 03:12:00,
2013-01-02 04:17:00,27.8,27.1,30.09,East,91,1.7,3.5,97,0.00,BKN,,0.00,0.0,WeatherDisplay:10.37,2013-01-02 03:17:00,
2013-01-02 04:22:00,27.8,27.1,30.09,East,91,0.8,2.3,97,0.00,BKN,,0.00,0.0,WeatherDisplay:10.37,2013-01-02 03:22:00,
2013-01-02 04:27:00,27.8,27.1,30.10,East,91,1.9,3.5,97,0.00,BKN,,0.00,0.0,WeatherDisplay:10.37,2013-01-02 03:27:00,
2013-01-02 04:32:00,27.8,27.1,30.10,East,91,0.3,1.1,97,0.00,BKN,,0.00,0.0,WeatherDisplay:10.37,2013-01-02 03:32:00,
2013-01-02 04:37:00,27.8,26.8,30.10,East,91,0.1,2.0,96,0.00,BKN,,0.00,0.0,WeatherDisplay:10.37,2013-01-02 03:37:00,
2013-01-02 04:42:00,27.7,27.0,30.10,East,91,0.0,2.3,97,0.00,BKN,,0.00,0.0,WeatherDisplay:10.37,2013-01-02 03:42:00,
2013-01-02 04:47:00,27.7,27.0,30.10,East,91,0.1,2.3,97,0.00,BKN,,0.00,0.0,WeatherDisplay:10.37,2013-01-02 03:47:00,
2013-01-02 04:52:00,27.7,27.0,30.10,ENE,64,0.3,3.5,97,0.00,BKN,,0.00,0.0,WeatherDisplay:10.37,2013-01-02 03:52:00,
2013-01-02 04:57:00,27.7,27.0,30.10,ENE,69,0.2,2.3,97,0.00,BKN,,0.00,0.0,WeatherDisplay:10.37,2013-01-02 03:57:00,
2013-01-02 05:02:00,27.7,27.0,30.10,ENE,69,0.0,1.1,97,0.00,BKN,,0.00,0.0,WeatherDisplay:10.37,2013-01-02 04:02:00,
2013-01-02 05:07:00,27.7,27.0,30.10,ENE,69,0.0,0.0,97,0.00,BKN,,0.00,0.0,WeatherDisplay:10.37,2013-01-02 04:07:00,
2013-01-02 05:12:00,27.7,27.0,30.10,ENE,69,0.0,0.0,97,0.00,BKN,,0.00,0.0,WeatherDisplay:10.37,2013-01-02 04:12:00,
2013-01-02 05:17:00,27.7,27.0,30.10,ENE,69,0.1,1.1,97,0.00,BKN,,0.00,0.0,WeatherDisplay:10.37,2013-01-02 04:17:00,
2013-01-02 05:22:00,27.8,27.1,30.11,ENE,69,0.0,0.0,97,0.00,BKN,,0.00,0.0,WeatherDisplay:10.37,2013-01-02 04:22:00,
2013-01-02 05:27:00,27.8,27.1,30.11,ENE,69,0.9,2.3,97,0.00,BKN,,0.00,0.0,WeatherDisplay:10.37,2013-01-02 04:27:00,
2013-01-02 05:32:00,27.8,27.1,30.11,ENE,69,0.5,2.3,97,0.00,BKN,,0.00,0.0,WeatherDisplay:10.37,2013-01-02 04:32:00,
2013-01-02 05:37:00,27.8,27.1,30.11,ENE,68,0.8,2.3,97,0.00,BKN,,0.00,0.0,WeatherDisplay:10.37,2013-01-02 04:37:00,
2013-01-02 05:42:00,27.8,27.1,30.11,ENE,69,0.6,2.3,97,0.00,BKN,,0.00,0.0,WeatherDisplay:10.37,2013-01-02 04:42:00,
2013-01-02 05:47:00,27.8,27.1,30.11,ENE,69,0.2,1.1,97,0.00,BKN,,0.00,0.0,WeatherDisplay:10.37,2013-01-02 04:47:00,
2013-01-02 05:52:00,27.8,27.1,30.11,ENE,69,0.1,1.1,97,0.00,BKN,,0.00,0.0,WeatherDisplay:10.37,2013-01-02 04:52:00,
2013-01-02 05:57:00,27.8,27.1,30.11,ENE,69,0.0,0.0,97,0.00,BKN,,0.00,0.0,WeatherDisplay:10.37,2013-01-02 04:57:00,
2013-01-02 06:00:00,27.8,27.1,30.11,ENE,69,0.0,0.0,97,0.00,BKN,,0.00,0.0,WeatherDisplay:10.37,2013-01-02 05:00:00,
2013-01-02 06:01:00,27.8,27.1,30.12,ENE,69,0.0,0.0,97,0.00,BKN,,0.00,0.0,WeatherDisplay:10.37,2013-01-02 05:01:00,
2013-01-02 06:06:00,27.8,27.1,30.11,ENE,69,0.0,1.1,97,0.00,BKN,,0.00,0.0,WeatherDisplay:10.37,2013-01-02 05:06:00,
2013-01-02 06:09:00,27.8,27.1,30.12,ENE,69,0.0,2.3,97,0.00,BKN,,0.00,0.0,WeatherDisplay:10.37,2013-01-02 05:09:00,
2013-01-02 06:14:00,27.8,27.1,30.12,ENE,69,0.0,1.0,97,0.00,BKN,,0.00,0.0,WeatherDisplay:10.37,2013-01-02 05:14:00,
2013-01-02 06:19:00,27.8,27.1,30.12,ENE,69,0.0,0.0,97,0.00,BKN,,0.00,0.0,WeatherDisplay:10.37,2013-01-02 05:19:00,
2013-01-02 06:24:00,27.8,27.1,30.12,ENE,69,0.0,0.0,97,0.00,BKN,,0.00,0.0,WeatherDisplay:10.37,2013-01-02 05:24:00,
2013-01-02 06:29:00,27.8,27.1,30.12,ENE,69,0.0,1.1,97,0.00,BKN,,0.00,0.0,WeatherDisplay:10.37,2013-01-02 05:29:00,
2013-01-02 06:34:00,27.8,27.1,30.12,ENE,68,0.0,1.1,97,0.00,BKN,,0.00,0.0,WeatherDisplay:10.37,2013-01-02 05:34:00,
2013-01-02 06:39:00,27.7,27.0,30.12,ENE,69,0.0,0.0,97,0.00,BKN,,0.00,0.0,WeatherDisplay:10.37,2013-01-02 05:39:00,
2013-01-02 06:44:00,27.7,27.0,30.12,ENE,69,0.0,0.0,97,0.00,BKN,,0.00,0.0,WeatherDisplay:10.37,2013-01-02 05:44:00,
2013-01-02 06:49:00,27.7,26.7,30.12,ENE,69,1.1,2.3,96,0.00,BKN,,0.00,0.0,WeatherDisplay:10.37,2013-01-02 05:49:00,
2013-01-02 06:54:00,27.7,26.7,30.12,ENE,69,0.0,0.0,96,0.00,BKN,,0.00,0.0,WeatherDisplay:10.37,2013-01-02 05:54:00,
2013-01-02 06:59:00,27.7,27.0,30.12,ENE,69,0.0,0.0,97,0.00,BKN,,0.00,0.0,WeatherDisplay:10.37,2013-01-02 05:59:00,
2013-01-02 07:04:00,27.7,27.0,30.12,ENE,68,0.2,2.3,97,0.00,BKN,,0.00,0.0,WeatherDisplay:10.37,2013-01-02 06:04:00,
2013-01-02 07:09:00,27.7,27.0,30.12,ENE,68,1.2,3.5,97,0.00,BKN,,0.00,0.0,WeatherDisplay:10.37,2013-01-02 06:09:00,
2013-01-02 07:14:00,27.6,26.9,30.13,ENE,68,0.0,1.1,97,0.00,BKN,,0.00,0.0,WeatherDisplay:10.37,2013-01-02 06:14:00,
2013-01-02 07:19:00,27.6,26.9,30.13,ENE,68,0.0,0.0,97,0.00,BKN,,0.00,0.0,WeatherDisplay:10.37,2013-01-02 06:19:00,
2013-01-02 07:24:00,27.6,26.9,30.13,ENE,68,0.0,1.1,97,0.00,BKN,,0.00,0.0,WeatherDisplay:10.37,2013-01-02 06:24:00,
2013-01-02 07:29:00,27.6,26.9,30.13,ENE,68,0.0,0.0,97,0.00,BKN,,0.00,0.0,WeatherDisplay:10.37,2013-01-02 06:29:00,
2013-01-02 07:34:00,27.6,26.9,30.13,ENE,68,0.0,0.0,97,0.00,BKN,,0.00,0.0,WeatherDisplay:10.37,2013-01-02 06:34:00,
2013-01-02 07:39:00,27.5,26.8,30.14,ENE,68,0.0,0.0,97,0.00,BKN,,0.00,0.0,WeatherDisplay:10.37,2013-01-02 06:39:00,
2013-01-02 07:44:00,27.5,26.8,30.14,ENE,68,0.0,2.3,97,0.00,BKN,,0.00,0.0,WeatherDisplay:10.37,2013-01-02 06:44:00,
2013-01-02 07:49:00,27.6,26.9,30.14,NW,321,1.0,3.5,97,0.00,BKN,,0.00,5.0,WeatherDisplay:10.37,2013-01-02 06:49:00,
2013-01-02 07:54:00,27.5,26.8,30.15,NW,321,0.0,0.0,97,0.00,BKN,,0.00,7.0,WeatherDisplay:10.37,2013-01-02 06:54:00,
2013-01-02 07:59:00,27.5,26.8,30.15,NW,321,0.0,0.0,97,0.00,BKN,,0.00,7.0,WeatherDisplay:10.37,2013-01-02 06:59:00,
2013-01-02 08:04:00,27.5,26.8,30.15,North,360,0.0,0.0,97,0.00,BKN,,0.00,9.0,WeatherDisplay:10.37,2013-01-02 07:04:00,
2013-01-02 08:09:00,27.5,26.8,30.15,NW,321,0.0,0.0,97,0.00,BKN,,0.00,11.0,WeatherDisplay:10.37,2013-01-02 07:09:00,
2013-01-02 08:14:00,27.5,26.8,30.15,North,360,0.0,0.0,97,0.00,BKN,,0.00,12.0,WeatherDisplay:10.37,2013-01-02 07:14:00,
2013-01-02 08:19:00,27.5,26.8,30.15,NW,321,0.0,0.0,97,0.00,BKN,,0.00,11.0,WeatherDisplay:10.37,2013-01-02 07:19:00,
2013-01-02 08:24:00,27.6,26.9,30.15,NW,321,0.0,0.0,97,0.00,BKN,,0.00,11.0,WeatherDisplay:10.37,2013-01-02 07:24:00,
2013-01-02 08:29:00,27.6,26.9,30.16,NW,321,2.5,3.5,97,0.00,BKN,,0.00,12.0,WeatherDisplay:10.37,2013-01-02 07:29:00,
2013-01-02 08:34:00,27.6,26.9,30.16,NW,321,0.4,2.3,97,0.00,BKN,,0.00,12.0,WeatherDisplay:10.37,2013-01-02 07:34:00,
2013-01-02 08:39:00,27.7,27.0,30.16,NW,321,0.8,3.5,97,0.00,BKN,,0.00,14.0,WeatherDisplay:10.37,2013-01-02 07:39:00,
2013-01-02 08:44:00,27.7,27.0,30.16,NW,304,2.1,4.6,97,0.00,BKN,,0.00,16.0,WeatherDisplay:10.37,2013-01-02 07:44:00,
2013-01-02 08:49:00,27.7,27.0,30.17,NW,304,0.2,1.1,97,0.00,BKN,,0.00,18.0,WeatherDisplay:10.37,2013-01-02 07:49:00,
2013-01-02 08:54:00,27.7,27.0,30.17,North,360,0.6,2.3,97,0.00,BKN,,0.00,14.0,WeatherDisplay:10.37,2013-01-02 07:54:00,
2013-01-02 09:00:00,27.7,27.0,30.17,NW,309,0.1,2.3,97,0.00,BKN,,0.00,19.0,WeatherDisplay:10.37,2013-01-02 08:00:00,
2013-01-02 09:05:00,27.7,27.0,30.18,NW,309,0.0,0.0,97,0.00,BKN,,0.00,16.0,WeatherDisplay:10.37,2013-01-02 08:05:00,
2013-01-02 09:10:00,27.7,27.0,30.18,WNW,299,2.9,4.0,97,0.00,BKN,,0.00,19.0,WeatherDisplay:10.37,2013-01-02 08:10:00,
2013-01-02 09:15:00,27.8,27.1,30.18,NW,304,0.7,2.3,97,0.00,BKN,,0.00,18.0,WeatherDisplay:10.37,2013-01-02 08:15:00,
2013-01-02 09:20:00,27.8,27.1,30.18,NW,311,1.2,3.5,97,0.00,BKN,,0.00,19.0,WeatherDisplay:10.37,2013-01-02 08:20:00,
2013-01-02 09:25:00,27.8,27.1,30.19,NNE,13,1.2,4.6,97,0.00,BKN,,0.00,23.0,WeatherDisplay:10.37,2013-01-02 08:25:00,
2013-01-02 09:30:00,27.8,27.1,30.19,NW,312,1.4,3.5,97,0.00,BKN,,0.00,25.0,WeatherDisplay:10.37,2013-01-02 08:30:00,
2013-01-02 09:35:00,27.8,27.1,30.19,NW,312,0.0,2.3,97,0.00,BKN,,0.00,23.0,WeatherDisplay:10.37,2013-01-02 08:35:00,
2013-01-02 09:40:00,27.9,27.2,30.19,NW,320,0.6,2.0,97,0.00,BKN,,0.00,30.0,WeatherDisplay:10.37,2013-01-02 08:40:00,
2013-01-02 09:45:00,27.9,27.2,30.19,NW,320,1.1,2.3,97,0.00,BKN,,0.00,30.0,WeatherDisplay:10.37,2013-01-02 08:45:00,
2013-01-02 09:50:00,28.0,27.3,30.19,NW,320,0.6,2.3,97,0.00,BKN,,0.00,32.0,WeatherDisplay:10.37,2013-01-02 08:50:00,
2013-01-02 09:55:00,28.1,27.4,30.20,North,360,1.7,5.0,97,0.00,BKN,,0.00,40.0,WeatherDisplay:10.37,2013-01-02 08:55:00,
2013-01-02 10:00:00,28.1,27.4,30.19,NNW,336,1.0,3.5,97,0.00,BKN,,0.00,51.0,WeatherDisplay:10.37,2013-01-02 09:00:00,
2013-01-02 10:05:00,28.0,27.3,30.19,NNW,336,0.0,0.0,97,0.00,BKN,,0.00,53.0,WeatherDisplay:10.37,2013-01-02 09:05:00,
2013-01-02 10:10:00,28.0,27.3,30.20,NNW,336,1.2,2.3,97,0.00,BKN,,0.00,40.0,WeatherDisplay:10.37,2013-01-02 09:10:00,
2013-01-02 10:15:00,28.0,27.3,30.20,NNW,333,1.9,3.5,97,0.00,BKN,,0.00,53.0,WeatherDisplay:10.37,2013-01-02 09:15:00,
2013-01-02 10:20:00,28.0,27.3,30.20,NW,307,1.1,2.3,97,0.00,BKN,,0.00,35.0,WeatherDisplay:10.37,2013-01-02 09:20:00,
2013-01-02 10:25:00,28.0,27.3,30.20,NW,306,0.8,2.3,97,0.00,BKN,,0.00,32.0,WeatherDisplay:10.37,2013-01-02 09:25:00,
2013-01-02 10:30:00,28.0,27.3,30.20,West,280,2.9,5.0,97,0.00,BKN,,0.00,32.0,WeatherDisplay:10.37,2013-01-02 09:30:00,
2013-01-02 10:35:00,28.1,27.4,30.20,West,272,1.7,3.5,97,0.00,BKN,,0.00,32.0,WeatherDisplay:10.37,2013-01-02 09:35:00,
2013-01-02 10:40:00,28.1,27.4,30.20,West,278,0.0,3.5,97,0.00,BKN,,0.00,39.0,WeatherDisplay:10.37,2013-01-02 09:40:00,
2013-01-02 10:45:00,28.2,27.5,30.20,West,278,0.3,3.5,97,0.00,BKN,,0.00,40.0,WeatherDisplay:10.37,2013-01-02 09:45:00,
2013-01-02 10:50:00,28.2,27.5,30.21,West,278,1.7,3.5,97,0.00,BKN,,0.00,49.0,WeatherDisplay:10.37,2013-01-02 09:50:00,
2013-01-02 10:55:00,28.2,27.5,30.21,West,278,0.0,2.3,97,0.00,BKN,,0.00,62.0,WeatherDisplay:10.37,2013-01-02 09:55:00,
2013-01-02 11:01:00,28.2,27.5,30.21,West,278,0.0,2.3,97,0.00,BKN,,0.00,40.0,WeatherDisplay:10.37,2013-01-02 10:01:00,
2013-01-02 11:06:00,28.2,27.5,30.21,West,278,1.3,2.3,97,0.00,BKN,,0.00,63.0,WeatherDisplay:10.37,2013-01-02 10:06:00,
2013-01-02 11:11:00,28.3,27.6,30.21,WNW,298,1.3,3.5,97,0.00,BKN,,0.00,58.0,WeatherDisplay:10.37,2013-01-02 10:11:00,
2013-01-02 11:16:00,28.3,27.6,30.21,NW,304,0.6,3.5,97,0.00,BKN,,0.00,54.0,WeatherDisplay:10.37,2013-01-02 10:16:00,
2013-01-02 11:21:00,28.4,27.7,30.21,NW,304,1.1,3.5,97,0.00,BKN,,0.00,56.0,WeatherDisplay:10.37,2013-01-02 10:21:00,
2013-01-02 11:26:00,28.3,27.6,30.21,NW,304,0.7,2.3,97,0.00,BKN,,0.00,63.0,WeatherDisplay:10.37,2013-01-02 10:26:00,
2013-01-02 11:31:00,28.4,27.7,30.21,NW,306,2.1,4.0,97,0.00,BKN,,0.00,58.0,WeatherDisplay:10.37,2013-01-02 10:31:00,
2013-01-02 11:36:00,28.5,27.8,30.21,NW,306,0.1,2.3,97,0.00,BKN,,0.00,67.0,WeatherDisplay:10.37,2013-01-02 10:36:00,
2013-01-02 11:41:00,28.5,27.8,30.21,NW,306,0.6,2.3,97,0.00,BKN,,0.00,65.0,WeatherDisplay:10.37,2013-01-02 10:41:00,
2013-01-02 11:46:00,28.6,27.9,30.21,NW,306,0.8,2.3,97,0.00,BKN,,0.00,54.0,WeatherDisplay:10.37,2013-01-02 10:46:00,
2013-01-02 11:51:00,28.7,28.0,30.21,NW,306,1.1,2.3,97,0.00,BKN,,0.00,54.0,WeatherDisplay:10.37,2013-01-02 10:51:00,
2013-01-02 11:56:00,28.7,28.0,30.21,NW,306,0.0,1.1,97,0.00,BKN,,0.00,53.0,WeatherDisplay:10.37,2013-01-02 10:56:00,
2013-01-02 12:01:00,28.8,28.1,30.21,NW,306,0.5,2.3,97,0.00,BKN,,0.00,60.0,WeatherDisplay:10.37,2013-01-02 11:01:00,
2013-01-02 12:06:00,28.9,28.2,30.20,NW,306,0.7,2.3,97,0.00,BKN,,0.00,69.0,WeatherDisplay:10.37,2013-01-02 11:06:00,
2013-01-02 12:11:00,28.9,28.2,30.21,North,360,1.2,2.3,97,0.00,BKN,,0.00,63.0,WeatherDisplay:10.37,2013-01-02 11:11:00,
2013-01-02 12:16:00,29.0,28.3,30.21,NW,306,0.8,3.5,97,0.00,BKN,,0.00,58.0,WeatherDisplay:10.37,2013-01-02 11:16:00,
2013-01-02 12:21:00,29.1,28.4,30.21,NW,306,1.3,3.5,97,0.00,BKN,,0.00,60.0,WeatherDisplay:10.37,2013-01-02 11:21:00,
2013-01-02 12:26:00,29.1,28.4,30.21,NW,306,2.0,3.5,97,0.00,BKN,,0.00,58.0,WeatherDisplay:10.37,2013-01-02 11:26:00,
2013-01-02 12:31:00,29.2,28.5,30.21,NW,306,2.5,5.0,97,0.00,BKN,,0.00,63.0,WeatherDisplay:10.37,2013-01-02 11:31:00,
2013-01-02 12:36:00,29.2,28.5,30.22,NW,306,0.1,2.3,97,0.00,BKN,,0.00,62.0,WeatherDisplay:10.37,2013-01-02 11:36:00,
2013-01-02 12:41:00,29.3,28.6,30.22,NW,306,0.0,0.0,97,0.00,BKN,,0.00,62.0,WeatherDisplay:10.37,2013-01-02 11:41:00,
2013-01-02 12:46:00,29.4,28.7,30.22,NW,306,0.9,2.3,97,0.00,BKN,,0.00,76.0,WeatherDisplay:10.37,2013-01-02 11:46:00,
2013-01-02 12:51:00,29.4,28.7,30.22,NW,306,0.0,1.1,97,0.00,BKN,,0.00,79.0,WeatherDisplay:10.37,2013-01-02 11:51:00,
2013-01-02 12:56:00,29.5,28.8,30.22,NW,306,0.0,1.1,97,0.00,BKN,,0.00,91.0,WeatherDisplay:10.37,2013-01-02 11:56:00,
2013-01-02 13:01:00,29.5,28.8,30.22,NW,306,1.6,3.5,97,0.00,BKN,,0.00,88.0,WeatherDisplay:10.37,2013-01-02 12:01:00,
2013-01-02 13:06:00,29.6,28.9,30.22,NW,306,0.6,3.5,97,0.00,BKN,,0.00,109.0,WeatherDisplay:10.37,2013-01-02 12:06:00,
2013-01-02 13:11:00,29.7,29.0,30.22,NW,306,0.0,0.0,97,0.00,SCT,,0.00,90.0,WeatherDisplay:10.37,2013-01-02 12:11:00,
2013-01-02 13:16:00,29.8,29.1,30.22,NW,306,0.0,0.0,97,0.00,BKN,,0.00,88.0,WeatherDisplay:10.37,2013-01-02 12:16:00,
2013-01-02 13:21:00,29.9,29.2,30.22,NW,306,0.0,0.0,97,0.00,BKN,,0.00,86.0,WeatherDisplay:10.37,2013-01-02 12:21:00,
2013-01-02 13:26:00,29.9,29.2,30.22,NW,306,0.0,0.0,97,0.00,SCT,,0.00,95.0,WeatherDisplay:10.37,2013-01-02 12:26:00,
2013-01-02 13:31:00,30.0,29.3,30.22,NW,306,0.0,0.0,97,0.00,SCT,,0.00,102.0,WeatherDisplay:10.37,2013-01-02 12:31:00,
2013-01-02 13:36:00,30.1,29.4,30.22,NW,306,0.0,1.1,97,0.00,SCT,,0.00,125.0,WeatherDisplay:10.37,2013-01-02 12:36:00,
2013-01-02 13:41:00,30.3,29.6,30.22,NW,306,0.9,2.3,97,0.00,SCT,,0.00,91.0,WeatherDisplay:10.37,2013-01-02 12:41:00,
2013-01-02 13:46:00,30.4,29.7,30.23,NW,306,0.3,2.0,97,0.00,SCT,,0.00,76.0,WeatherDisplay:10.37,2013-01-02 12:46:00,
2013-01-02 13:51:00,30.5,29.8,30.23,NW,306,0.2,1.1,97,0.00,SCT,,0.00,79.0,WeatherDisplay:10.37,2013-01-02 12:51:00,
2013-01-02 13:56:00,30.6,29.9,30.23,NW,306,0.0,0.0,97,0.00,SCT,,0.00,65.0,WeatherDisplay:10.37,2013-01-02 12:56:00,
2013-01-02 14:01:00,30.6,29.9,30.23,NW,306,0.0,0.0,97,0.00,SCT,,0.00,70.0,WeatherDisplay:10.37,2013-01-02 13:01:00,
2013-01-02 14:06:00,30.7,30.0,30.23,NW,306,0.0,0.0,97,0.00,SCT,,0.00,72.0,WeatherDisplay:10.37,2013-01-02 13:06:00,
2013-01-02 14:11:00,30.8,30.0,30.23,NW,306,0.0,0.0,97,0.00,SCT,,0.00,69.0,WeatherDisplay:10.37,2013-01-02 13:11:00,
2013-01-02 14:16:00,30.9,30.1,30.23,NW,306,0.0,0.0,97,0.00,SCT,,0.00,70.0,WeatherDisplay:10.37,2013-01-02 13:16:00,
2013-01-02 14:21:00,31.1,30.3,30.24,NW,306,0.0,0.0,97,0.00,SCT,,0.00,81.0,WeatherDisplay:10.37,2013-01-02 13:21:00,
2013-01-02 14:26:00,31.1,30.3,30.23,NW,306,0.1,1.1,97,0.00,SCT,,0.00,76.0,WeatherDisplay:10.37,2013-01-02 13:26:00,
2013-01-02 14:31:00,31.2,30.4,30.24,NW,306,0.0,2.3,97,0.00,SCT,,0.00,76.0,WeatherDisplay:10.37,2013-01-02 13:31:00,
2013-01-02 14:36:00,31.3,30.5,30.24,NW,306,0.0,1.1,97,0.00,SCT,,0.00,74.0,WeatherDisplay:10.37,2013-01-02 13:36:00,
2013-01-02 14:41:00,31.3,30.5,30.24,NW,306,0.6,1.1,97,0.00,SCT,,0.00,69.0,WeatherDisplay:10.37,2013-01-02 13:41:00,
2013-01-02 14:46:00,31.4,30.6,30.24,NW,306,0.1,1.1,97,0.00,SCT,,0.00,60.0,WeatherDisplay:10.37,2013-01-02 13:46:00,
2013-01-02 14:51:00,31.5,30.7,30.24,NW,306,0.6,3.5,97,0.00,SCT,,0.00,54.0,WeatherDisplay:10.37,2013-01-02 13:51:00,
2013-01-02 14:56:00,31.5,30.7,30.24,NW,306,0.7,2.3,97,0.00,SCT,,0.00,53.0,WeatherDisplay:10.37,2013-01-02 13:56:00,
2013-01-02 15:01:00,31.6,30.8,30.24,North,360,0.1,1.1,97,0.00,SCT,,0.00,49.0,WeatherDisplay:10.37,2013-01-02 14:01:00,
2013-01-02 15:06:00,31.6,30.8,30.24,NW,306,0.0,0.0,97,0.00,SCT,,0.00,44.0,WeatherDisplay:10.37,2013-01-02 14:06:00,
2013-01-02 15:11:00,31.7,30.9,30.25,North,360,0.1,1.0,97,0.00,SCT,,0.00,37.0,WeatherDisplay:10.37,2013-01-02 14:11:00,
2013-01-02 15:16:00,31.7,30.7,30.25,North,360,0.0,0.0,96,0.00,SCT,,0.00,35.0,WeatherDisplay:10.37,2013-01-02 14:16:00,
2013-01-02 15:21:00,31.7,30.7,30.25,NW,306,0.0,0.0,96,0.00,SCT,,0.00,33.0,WeatherDisplay:10.37,2013-01-02 14:21:00,
2013-01-02 15:26:00,31.7,30.7,30.25,NW,306,0.0,0.0,96,0.00,SCT,,0.00,28.0,WeatherDisplay:10.37,2013-01-02 14:26:00,
2013-01-02 15:31:00,31.7,30.7,30.25,North,360,0.0,0.0,96,0.00,SCT,,0.00,21.0,WeatherDisplay:10.37,2013-01-02 14:31:00,
2013-01-02 15:36:00,31.7,30.7,30.25,NW,306,0.0,0.0,96,0.00,SCT,,0.00,18.0,WeatherDisplay:10.37,2013-01-02 14:36:00,
2013-01-02 15:41:00,31.7,30.7,30.26,NW,306,0.0,0.0,96,0.00,SCT,,0.00,12.0,WeatherDisplay:10.37,2013-01-02 14:41:00,
2013-01-02 15:46:00,31.7,30.7,30.26,NW,306,0.0,0.0,96,0.00,SCT,,0.00,9.0,WeatherDisplay:10.37,2013-01-02 14:46:00,
2013-01-02 15:51:00,31.6,30.6,30.26,NW,306,0.0,0.0,96,0.00,SCT,,0.00,7.0,WeatherDisplay:10.37,2013-01-02 14:51:00,
2013-01-02 15:56:00,31.6,30.6,30.26,NW,306,0.0,0.0,96,0.00,SCT,,0.00,5.0,WeatherDisplay:10.37,2013-01-02 14:56:00,
2013-01-02 16:01:00,31.5,30.5,30.27,NW,306,1.4,3.5,96,0.00,SCT,,0.00,0.0,WeatherDisplay:10.37,2013-01-02 15:01:00,
2013-01-02 16:06:00,31.5,30.5,30.27,NW,306,0.1,1.1,96,0.00,SCT,,0.00,0.0,WeatherDisplay:10.37,2013-01-02 15:06:00,
2013-01-02 16:11:00,31.4,30.4,30.27,NW,306,0.1,2.3,96,0.00,SCT,,0.00,0.0,WeatherDisplay:10.37,2013-01-02 15:11:00,
2013-01-02 16:16:00,31.3,30.0,30.27,North,360,0.6,3.5,95,0.00,SCT,,0.00,0.0,WeatherDisplay:10.37,2013-01-02 15:16:00,
2013-01-02 16:21:00,31.3,30.0,30.27,NW,306,0.0,2.3,95,0.00,SCT,,0.00,0.0,WeatherDisplay:10.37,2013-01-02 15:21:00,
2013-01-02 16:26:00,31.2,29.9,30.27,NW,306,0.7,2.3,95,0.00,SCT,,0.00,0.0,WeatherDisplay:10.37,2013-01-02 15:26:00,
2013-01-02 16:31:00,31.1,29.8,30.27,NW,306,0.3,2.3,95,0.00,SCT,,0.00,0.0,WeatherDisplay:10.37,2013-01-02 15:31:00,
2013-01-02 16:36:00,31.1,29.8,30.27,NW,306,0.0,0.0,95,0.00,SCT,,0.00,0.0,WeatherDisplay:10.37,2013-01-02 15:36:00,
2013-01-02 16:41:00,31.0,29.7,30.28,NW,306,0.0,0.0,95,0.00,SCT,,0.00,0.0,WeatherDisplay:10.37,2013-01-02 15:41:00,
2013-01-02 16:46:00,30.9,29.6,30.28,NW,306,0.0,0.0,95,0.00,SCT,,0.00,0.0,WeatherDisplay:10.37,2013-01-02 15:46:00,
2013-01-02 16:51:00,30.7,29.4,30.28,NW,306,0.0,0.0,95,0.00,SCT,,0.00,0.0,WeatherDisplay:10.37,2013-01-02 15:51:00,
2013-01-02 16:56:00,30.6,29.3,30.28,NW,306,0.0,0.0,95,0.00,SCT,,0.00,0.0,WeatherDisplay:10.37,2013-01-02 15:56:00,
2013-01-02 17:01:00,30.5,29.2,30.28,NW,306,0.0,1.1,95,0.00,SCT,,0.00,0.0,WeatherDisplay:10.37,2013-01-02 16:01:00,
2013-01-02 17:06:00,30.5,29.2,30.28,North,360,0.0,0.0,95,0.00,SCT,,0.00,0.0,WeatherDisplay:10.37,2013-01-02 16:06:00,
2013-01-02 17:11:00,30.4,29.1,30.28,NW,306,0.0,0.0,95,0.00,SCT,,0.00,0.0,WeatherDisplay:10.37,2013-01-02 16:11:00,
2013-01-02 17:16:00,30.4,29.1,30.29,NW,306,0.3,2.0,95,0.00,SCT,,0.00,0.0,WeatherDisplay:10.37,2013-01-02 16:16:00,
2013-01-02 17:21:00,30.4,29.1,30.29,NW,306,0.0,0.0,95,0.00,SCT,,0.00,0.0,WeatherDisplay:10.37,2013-01-02 16:21:00,
2013-01-02 17:26:00,30.4,29.1,30.29,NW,306,0.2,1.0,95,0.00,SCT,,0.00,0.0,WeatherDisplay:10.37,2013-01-02 16:26:00,
2013-01-02 17:31:00,30.5,29.2,30.30,NW,306,0.0,1.1,95,0.00,SCT,,0.00,0.0,WeatherDisplay:10.37,2013-01-02 16:31:00,
2013-01-02 17:36:00,30.5,29.2,30.30,NW,306,0.3,1.1,95,0.00,SCT,,0.00,0.0,WeatherDisplay:10.37,2013-01-02 16:36:00,
2013-01-02 17:41:00,30.6,29.3,30.30,NW,306,0.0,1.1,95,0.00,SCT,,0.00,0.0,WeatherDisplay:10.37,2013-01-02 16:41:00,
2013-01-02 17:46:00,30.6,29.3,30.30,NW,306,0.0,1.1,95,0.00,SCT,,0.00,0.0,WeatherDisplay:10.37,2013-01-02 16:46:00,
2013-01-02 17:51:00,30.6,29.3,30.30,NW,306,0.0,0.0,95,0.00,SCT,,0.00,0.0,WeatherDisplay:10.37,2013-01-02 16:51:00,
2013-01-02 17:56:00,30.6,29.3,30.30,NW,306,0.0,0.0,95,0.00,SCT,,0.00,0.0,WeatherDisplay:10.37,2013-01-02 16:56:00,
2013-01-02 18:01:00,30.5,29.2,30.31,NW,306,0.0,0.0,95,0.00,SCT,,0.00,0.0,WeatherDisplay:10.37,2013-01-02 17:01:00,
2013-01-02 18:06:00,30.4,29.1,30.31,NW,306,0.0,1.1,95,0.00,SCT,,0.00,0.0,WeatherDisplay:10.37,2013-01-02 17:06:00,
2013-01-02 18:11:00,30.3,29.0,30.31,NW,306,0.0,1.1,95,0.00,SCT,,0.00,0.0,WeatherDisplay:10.37,2013-01-02 17:11:00,
2013-01-02 18:16:00,30.2,28.9,30.32,NW,306,0.1,1.1,95,0.00,SCT,,0.00,0.0,WeatherDisplay:10.37,2013-01-02 17:16:00,
2013-01-02 18:21:00,30.2,28.9,30.32,NW,306,0.7,2.0,95,0.00,SCT,,0.00,0.0,WeatherDisplay:10.37,2013-01-02 17:21:00,
2013-01-02 18:26:00,30.2,28.9,30.32,NW,306,0.6,2.3,95,0.00,SCT,,0.00,0.0,WeatherDisplay:10.37,2013-01-02 17:26:00,
2013-01-02 18:31:00,30.3,29.3,30.32,NW,306,0.3,2.3,96,0.00,SCT,,0.00,0.0,WeatherDisplay:10.37,2013-01-02 17:31:00,
2013-01-02 18:36:00,30.4,29.4,30.33,NW,306,0.9,2.3,96,0.00,SCT,,0.00,0.0,WeatherDisplay:10.37,2013-01-02 17:36:00,
2013-01-02 18:41:00,30.5,29.2,30.33,NNW,344,2.7,4.0,95,0.00,SCT,,0.00,0.0,WeatherDisplay:10.37,2013-01-02 17:41:00,
2013-01-02 18:46:00,30.6,29.3,30.33,NW,317,0.4,3.5,95,0.00,SCT,,0.00,0.0,WeatherDisplay:10.37,2013-01-02 17:46:00,
2013-01-02 18:51:00,30.6,29.3,30.33,NNW,327,1.9,3.5,95,0.00,SCT,,0.00,0.0,WeatherDisplay:10.37,2013-01-02 17:51:00,
2013-01-02 18:56:00,30.7,29.4,30.33,NNW,327,0.6,3.0,95,0.00,SCT,,0.00,0.0,WeatherDisplay:10.37,2013-01-02 17:56:00,
2013-01-02 19:01:00,30.7,29.4,30.33,NNW,327,0.0,0.0,95,0.00,SCT,,0.00,0.0,WeatherDisplay:10.37,2013-01-02 18:01:00,
2013-01-02 19:06:00,30.8,29.5,30.34,NNW,327,0.1,2.3,95,0.00,SCT,,0.00,0.0,WeatherDisplay:10.37,2013-01-02 18:06:00,
2013-01-02 19:11:00,30.7,29.4,30.34,NNW,327,0.4,2.3,95,0.00,SCT,,0.00,0.0,WeatherDisplay:10.37,2013-01-02 18:11:00,
2013-01-02 19:16:00,30.7,29.4,30.34,NNW,327,0.3,3.5,95,0.00,SCT,,0.00,0.0,WeatherDisplay:10.37,2013-01-02 18:16:00,
2013-01-02 19:21:00,30.8,29.5,30.35,NNW,327,0.1,2.3,95,0.00,SCT,,0.00,0.0,WeatherDisplay:10.37,2013-01-02 18:21:00,
2013-01-02 19:26:00,30.9,29.6,30.35,NNW,330,0.5,3.5,95,0.00,SCT,,0.00,0.0,WeatherDisplay:10.37,2013-01-02 18:26:00,
2013-01-02 19:31:00,31.1,30.1,30.35,NNW,331,0.8,3.5,96,0.00,SCT,,0.00,0.0,WeatherDisplay:10.37,2013-01-02 18:31:00,
2013-01-02 19:36:00,31.3,30.3,30.34,NNW,331,1.1,2.3,96,0.00,SCT,,0.00,0.0,WeatherDisplay:10.37,2013-01-02 18:36:00,
2013-01-02 19:41:00,31.5,30.5,30.35,NNW,333,1.3,3.5,96,0.00,SCT,,0.00,0.0,WeatherDisplay:10.37,2013-01-02 18:41:00,
2013-01-02 19:46:00,31.6,30.6,30.35,NNW,333,0.9,2.3,96,0.00,SCT,,0.00,0.0,WeatherDisplay:10.37,2013-01-02 18:46:00,
2013-01-02 19:51:00,31.6,30.6,30.35,NNW,333,0.0,0.0,96,0.00,SCT,,0.00,0.0,WeatherDisplay:10.37,2013-01-02 18:51:00,
2013-01-02 19:56:00,31.5,30.5,30.35,NNW,333,0.1,1.1,96,0.00,SCT,,0.00,0.0,WeatherDisplay:10.37,2013-01-02 18:56:00,
2013-01-02 20:01:00,31.5,30.2,30.35,NNW,333,1.0,3.0,95,0.00,SCT,,0.00,0.0,WeatherDisplay:10.37,2013-01-02 19:01:00,
2013-01-02 20:06:00,31.5,30.2,30.35,NNW,333,1.1,3.5,95,0.00,SCT,,0.00,0.0,WeatherDisplay:10.37,2013-01-02 19:06:00,
2013-01-02 20:11:00,31.5,30.2,30.36,North,360,0.3,2.3,95,0.00,SCT,,0.00,0.0,WeatherDisplay:10.37,2013-01-02 19:11:00,
2013-01-02 20:16:00,31.6,30.6,30.36,NNW,333,0.0,3.5,96,0.00,SCT,,0.00,0.0,WeatherDisplay:10.37,2013-01-02 19:16:00,
2013-01-02 20:21:00,31.6,30.6,30.36,NNW,333,0.0,2.3,96,0.00,SCT,,0.00,0.0,WeatherDisplay:10.37,2013-01-02 19:21:00,
2013-01-02 20:26:00,31.7,30.7,30.36,NNW,333,0.0,1.1,96,0.00,SCT,,0.00,0.0,WeatherDisplay:10.37,2013-01-02 19:26:00,
2013-01-02 20:31:00,31.7,30.4,30.36,NNW,333,0.1,1.0,95,0.00,SCT,,0.00,0.0,WeatherDisplay:10.37,2013-01-02 19:31:00,
2013-01-02 20:36:00,31.7,30.4,30.36,NNW,333,1.0,3.5,95,0.00,SCT,,0.00,0.0,WeatherDisplay:10.37,2013-01-02 19:36:00,
2013-01-02 20:41:00,31.8,30.5,30.36,NNW,333,0.7,2.3,95,0.00,SCT,,0.00,0.0,WeatherDisplay:10.37,2013-01-02 19:41:00,
2013-01-02 20:46:00,31.9,30.6,30.37,North,9,1.9,5.0,95,0.00,SCT,,0.00,0.0,WeatherDisplay:10.37,2013-01-02 19:46:00,
2013-01-02 20:51:00,32.0,30.7,30.37,NW,324,0.3,3.5,95,0.00,SCT,,0.00,0.0,WeatherDisplay:10.37,2013-01-02 19:51:00,
2013-01-02 20:56:00,32.1,31.1,30.37,NNW,328,2.3,5.8,96,0.00,SCT,,0.00,0.0,WeatherDisplay:10.37,2013-01-02 19:56:00,
2013-01-02 21:01:00,32.2,30.9,30.37,NW,323,1.3,3.5,95,0.00,SCT,,0.00,0.0,WeatherDisplay:10.37,2013-01-02 20:01:00,
2013-01-02 21:06:00,32.3,31.0,30.37,NW,323,1.2,2.3,95,0.00,SCT,,0.00,0.0,WeatherDisplay:10.37,2013-01-02 20:06:00,
2013-01-02 21:11:00,32.3,31.0,30.37,NNW,327,1.7,4.6,95,0.00,SCT,,0.00,0.0,WeatherDisplay:10.37,2013-01-02 20:11:00,
2013-01-02 21:16:00,32.4,31.1,30.37,North,360,2.9,4.0,95,0.00,SCT,,0.00,0.0,WeatherDisplay:10.37,2013-01-02 20:16:00,
2013-01-02 21:21:00,32.4,31.1,30.38,NNW,331,0.3,3.5,95,0.00,SCT,,0.00,0.0,WeatherDisplay:10.37,2013-01-02 20:21:00,
2013-01-02 21:26:00,32.5,31.2,30.38,NNW,329,0.7,3.5,95,0.00,SCT,,0.00,0.0,WeatherDisplay:10.37,2013-01-02 20:26:00,
2013-01-02 21:31:00,32.6,31.3,30.38,NW,321,1.8,5.0,95,0.00,SCT,,0.00,0.0,WeatherDisplay:10.37,2013-01-02 20:31:00,
2013-01-02 21:36:00,32.6,31.3,30.38,NNW,334,0.8,5.8,95,0.00,SCT,,0.00,0.0,WeatherDisplay:10.37,2013-01-02 20:36:00,
2013-01-02 21:41:00,32.7,31.4,30.38,NW,315,2.9,5.8,95,0.00,SCT,,0.00,0.0,WeatherDisplay:10.37,2013-01-02 20:41:00,
2013-01-02 21:46:00,32.7,31.4,30.38,North,355,2.7,4.0,95,0.00,SCT,,0.00,0.0,WeatherDisplay:10.37,2013-01-02 20:46:00,
2013-01-02 21:51:00,32.9,31.6,30.38,NNW,333,0.6,4.6,95,0.00,SCT,,0.00,0.0,WeatherDisplay:10.37,2013-01-02 20:51:00,
2013-01-02 21:56:00,32.8,31.3,30.39,North,360,0.1,2.0,94,0.00,SCT,,0.00,0.0,WeatherDisplay:10.37,2013-01-02 20:56:00,
2013-01-02 22:01:00,32.8,31.3,30.39,North,360,0.4,2.3,94,0.00,SCT,,0.00,0.0,WeatherDisplay:10.37,2013-01-02 21:01:00,
2013-01-02 22:06:00,32.7,31.2,30.39,North,350,0.0,1.1,94,0.00,SCT,,0.00,0.0,WeatherDisplay:10.37,2013-01-02 21:06:00,
2013-01-02 22:11:00,32.6,31.1,30.39,North,350,0.0,0.0,94,0.00,SCT,,0.00,0.0,WeatherDisplay:10.37,2013-01-02 21:11:00,
2013-01-02 22:16:00,32.4,30.9,30.39,North,350,0.3,2.3,94,0.00,SCT,,0.00,0.0,WeatherDisplay:10.37,2013-01-02 21:16:00,
2013-01-02 22:21:00,32.1,30.6,30.39,North,350,0.0,1.1,94,0.00,SCT,,0.00,0.0,WeatherDisplay:10.37,2013-01-02 21:21:00,
2013-01-02 22:26:00,31.9,30.1,30.40,North,360,0.0,0.0,93,0.00,SCT,,0.00,0.0,WeatherDisplay:10.37,2013-01-02 21:26:00,
2013-01-02 22:31:00,31.6,29.8,30.40,North,350,0.0,0.0,93,0.00,SCT,,0.00,0.0,WeatherDisplay:10.37,2013-01-02 21:31:00,
2013-01-02 22:36:00,31.3,29.5,30.40,North,350,0.0,0.0,93,0.00,SCT,,0.00,0.0,WeatherDisplay:10.37,2013-01-02 21:36:00,
2013-01-02 22:41:00,31.0,29.2,30.40,North,350,0.0,0.0,93,0.00,SCT,,0.00,0.0,WeatherDisplay:10.37,2013-01-02 21:41:00,
2013-01-02 22:46:00,30.7,28.9,30.41,North,360,0.0,0.0,93,0.00,SCT,,0.00,0.0,WeatherDisplay:10.37,2013-01-02 21:46:00,
2013-01-02 22:51:00,30.3,28.5,30.41,North,350,0.0,0.0,93,0.00,SCT,,0.00,0.0,WeatherDisplay:10.37,2013-01-02 21:51:00,
2013-01-02 22:56:00,30.1,28.3,30.41,North,350,0.0,0.0,93,0.00,SCT,,0.00,0.0,WeatherDisplay:10.37,2013-01-02 21:56:00,
2013-01-02 23:01:00,29.9,28.1,30.41,North,350,0.0,1.1,93,0.00,SCT,,0.00,0.0,WeatherDisplay:10.37,2013-01-02 22:01:00,
2013-01-02 23:06:00,29.8,28.0,30.41,North,350,0.0,0.0,93,0.00,SCT,,0.00,0.0,WeatherDisplay:10.37,2013-01-02 22:06:00,
2013-01-02 23:11:00,29.5,27.7,30.41,North,350,0.0,2.3,93,0.00,SCT,,0.00,0.0,WeatherDisplay:10.37,2013-01-02 22:11:00,
2013-01-02 23:16:00,29.4,27.6,30.41,North,360,0.4,1.1,93,0.00,SCT,,0.00,0.0,WeatherDisplay:10.37,2013-01-02 22:16:00,
2013-01-02 23:21:00,29.3,27.8,30.41,North,350,0.0,0.0,94,0.00,SCT,,0.00,0.0,WeatherDisplay:10.37,2013-01-02 22:21:00,
2013-01-02 23:26:00,29.2,27.7,30.41,North,350,0.0,0.0,94,0.00,SCT,,0.00,0.0,WeatherDisplay:10.37,2013-01-02 22:26:00,
2013-01-02 23:31:00,29.0,27.5,30.41,North,350,0.0,0.0,94,0.00,SCT,,0.00,0.0,WeatherDisplay:10.37,2013-01-02 22:31:00,
2013-01-02 23:37:00,28.6,26.8,30.41,North,350,0.0,1.0,93,0.00,SCT,,0.00,0.0,WeatherDisplay:10.37,2013-01-02 22:37:00,
2013-01-02 23:42:00,28.4,26.9,30.41,WNW,288,0.0,1.1,94,0.00,SCT,,0.00,0.0,WeatherDisplay:10.37,2013-01-02 22:42:00,
2013-01-02 23:47:00,28.4,26.9,30.41,WNW,288,0.0,0.0,94,0.00,SCT,,0.00,0.0,WeatherDisplay:10.37,2013-01-02 22:47:00,
2013-01-02 23:52:00,28.3,26.8,30.41,WNW,288,0.0,0.0,94,0.00,SCT,,0.00,0.0,WeatherDisplay:10.37,2013-01-02 22:52:00,
2013-01-02 23:57:00,28.2,26.7,30.41,North,360,0.0,0.0,94,0.00,SCT,,0.00,0.0,WeatherDisplay:10.37,2013-01-02 22:57:00,